createdAt,value
2023-08-09T00:00:14.991Z,14.00
2023-08-09T00:01:16.468Z,14.03
2023-08-09T00:02:18.089Z,14.28
2023-08-09T00:03:19.671Z,14.10
2023-08-09T00:04:21.368Z,14.26
2023-08-09T00:05:22.970Z,14.15
2023-08-09T00:06:24.512Z,14.09
2023-08-09T00:07:26.104Z,14.03
2023-08-09T00:08:27.715Z,13.92
2023-08-09T00:09:29.289Z,13.91
2023-08-09T00:10:30.938Z,13.90
2023-08-09T00:11:32.522Z,13.84
2023-08-09T00:12:34.861Z,13.80
2023-08-09T00:13:36.506Z,13.88
2023-08-09T00:14:38.134Z,13.80
2023-08-09T00:15:40.090Z,13.72
2023-08-09T00:16:41.725Z,13.70
2023-08-09T00:17:43.398Z,13.89
2023-08-09T00:18:45.048Z,13.89
2023-08-09T00:19:47.409Z,13.76
2023-08-09T00:20:50.304Z,13.83
2023-08-09T00:21:52.778Z,13.97
2023-08-09T00:22:54.380Z,13.82
2023-08-09T00:23:56.214Z,14.03
2023-08-09T00:25:01.108Z,13.91
2023-08-09T00:26:02.795Z,13.92
2023-08-09T00:27:04.672Z,13.94
2023-08-09T00:28:06.640Z,13.88
2023-08-09T00:29:08.292Z,14.09
2023-08-09T00:30:13.539Z,14.00
2023-08-09T00:31:15.336Z,13.94
2023-08-09T00:32:17.057Z,13.78
2023-08-09T00:33:19.153Z,13.82
2023-08-09T00:34:20.852Z,13.78
2023-08-09T00:35:22.495Z,13.81
2023-08-09T00:36:24.187Z,13.79
2023-08-09T00:37:25.864Z,13.90
2023-08-09T00:38:27.766Z,13.91
2023-08-09T00:39:31.138Z,13.80
2023-08-09T00:40:32.795Z,13.81
2023-08-09T00:41:34.441Z,13.90
2023-08-09T00:42:36.101Z,13.83
2023-08-09T00:43:37.717Z,13.98
2023-08-09T00:44:39.922Z,14.23
2023-08-09T00:45:44.007Z,14.04
2023-08-09T00:46:45.624Z,14.18
2023-08-09T00:47:47.344Z,14.08
2023-08-09T00:48:49.404Z,14.18
2023-08-09T00:49:52.989Z,14.11
2023-08-09T00:50:54.513Z,13.97
2023-08-09T00:51:56.138Z,14.03
2023-08-09T00:52:57.836Z,13.92
2023-08-09T00:53:59.415Z,13.91
2023-08-09T00:55:01.867Z,13.97
2023-08-09T00:56:04.951Z,13.98
2023-08-09T00:57:07.730Z,13.90
2023-08-09T00:58:09.352Z,13.98
2023-08-09T00:59:10.947Z,13.86
2023-08-09T01:00:13.164Z,13.83
2023-08-09T01:01:14.832Z,13.93
2023-08-09T01:02:16.601Z,13.90
2023-08-09T01:03:18.578Z,13.89
2023-08-09T01:04:20.260Z,13.85
2023-08-09T01:05:25.056Z,13.93
2023-08-09T01:06:32.828Z,13.97
2023-08-09T01:07:56.671Z,13.93
2023-08-09T01:09:18.741Z,13.97
2023-08-09T01:10:42.490Z,13.94
2023-08-09T01:11:52.954Z,13.89
2023-08-09T01:12:58.206Z,13.94
2023-08-09T01:14:00.995Z,13.93
2023-08-09T01:15:04.465Z,13.81
2023-08-09T01:16:07.684Z,13.82
2023-08-09T01:17:10.041Z,13.75
2023-08-09T01:18:11.863Z,13.77
2023-08-09T01:19:28.945Z,13.71
2023-08-09T01:20:31.386Z,13.70
2023-08-09T01:21:32.880Z,13.83
2023-08-09T01:22:36.854Z,14.04
2023-08-09T01:23:38.642Z,13.95
2023-08-09T01:24:40.704Z,13.84
2023-08-09T01:25:42.321Z,13.79
2023-08-09T01:26:44.350Z,13.67
2023-08-09T01:27:45.978Z,13.70
2023-08-09T01:28:47.546Z,13.75
2023-08-09T01:29:49.468Z,13.66
2023-08-09T01:30:51.156Z,13.68
2023-08-09T01:31:53.612Z,13.71
2023-08-09T01:32:55.385Z,13.63
2023-08-09T01:33:57.129Z,13.61
2023-08-09T01:35:00.192Z,13.60
2023-08-09T01:36:09.017Z,13.69
2023-08-09T01:37:50.795Z,13.71
2023-08-09T01:38:57.174Z,13.84
2023-08-09T01:40:01.523Z,13.71
2023-08-09T01:41:03.850Z,13.72
2023-08-09T01:42:06.387Z,13.64
2023-08-09T01:43:09.861Z,13.70
2023-08-09T01:44:12.507Z,13.62
2023-08-09T01:45:14.857Z,13.66
2023-08-09T01:46:16.584Z,13.65
2023-08-09T01:47:18.416Z,13.59
2023-08-09T01:48:20.053Z,13.73
2023-08-09T01:49:25.052Z,13.60
2023-08-09T01:50:30.333Z,14.00
2023-08-09T01:51:31.874Z,14.29
2023-08-09T01:52:33.690Z,14.59
2023-08-09T01:53:35.395Z,14.51
2023-08-09T01:54:36.978Z,14.48
2023-08-09T01:55:39.617Z,14.41
2023-08-09T01:56:42.225Z,14.30
2023-08-09T01:57:43.861Z,14.24
2023-08-09T01:58:45.462Z,14.54
2023-08-09T01:59:47.300Z,14.31
2023-08-09T02:00:49.121Z,14.41
2023-08-09T02:01:50.781Z,14.48
2023-08-09T02:02:53.298Z,14.52
2023-08-09T02:03:55.217Z,14.64
2023-08-09T02:04:56.756Z,14.59
2023-08-09T02:05:58.373Z,14.58
2023-08-09T02:07:00.308Z,14.65
2023-08-09T02:08:02.096Z,14.58
2023-08-09T02:09:04.110Z,14.36
2023-08-09T02:10:11.739Z,14.20
2023-08-09T02:11:13.358Z,14.14
2023-08-09T02:12:14.870Z,14.02
2023-08-09T02:13:16.402Z,13.97
2023-08-09T02:14:17.919Z,13.91
2023-08-09T02:15:21.431Z,14.15
2023-08-09T02:16:23.181Z,14.09
2023-08-09T02:17:24.941Z,14.07
2023-08-09T02:18:26.533Z,14.03
2023-08-09T02:19:28.127Z,13.98
2023-08-09T02:20:30.197Z,13.86
2023-08-09T02:21:32.250Z,13.93
2023-08-09T02:22:40.275Z,13.79
2023-08-09T02:23:42.012Z,13.84
2023-08-09T02:24:44.743Z,13.89
2023-08-09T02:25:46.367Z,14.03
2023-08-09T02:26:47.968Z,14.09
2023-08-09T02:27:49.673Z,13.99
2023-08-09T02:28:51.544Z,14.04
2023-08-09T02:29:53.168Z,13.98
2023-08-09T02:30:54.803Z,13.91
2023-08-09T02:31:56.446Z,13.95
2023-08-09T02:32:59.526Z,13.97
2023-08-09T02:34:02.011Z,13.95
2023-08-09T02:35:04.774Z,13.82
2023-08-09T02:36:06.743Z,13.82
2023-08-09T02:37:08.923Z,13.85
2023-08-09T02:38:11.998Z,13.99
2023-08-09T02:39:13.543Z,14.07
2023-08-09T02:40:15.163Z,13.98
2023-08-09T02:41:16.714Z,13.89
2023-08-09T02:42:18.426Z,13.89
2023-08-09T02:43:20.689Z,14.14
2023-08-09T02:44:22.308Z,14.07
2023-08-09T02:45:23.897Z,14.08
2023-08-09T02:46:25.528Z,14.23
2023-08-09T02:47:27.227Z,14.22
2023-08-09T02:48:28.935Z,14.23
2023-08-09T02:49:30.622Z,14.07
2023-08-09T02:50:32.240Z,14.06
2023-08-09T02:51:33.869Z,13.99
2023-08-09T02:52:35.439Z,13.95
2023-08-09T02:53:59.118Z,14.14
2023-08-09T02:55:00.705Z,13.97
2023-08-09T02:56:03.103Z,14.17
2023-08-09T02:57:04.903Z,14.17
2023-08-09T02:58:06.812Z,14.39
2023-08-09T02:59:08.438Z,14.22
2023-08-09T03:00:10.827Z,14.30
2023-08-09T03:01:13.372Z,14.41
2023-08-09T03:02:15.015Z,14.40
2023-08-09T03:03:19.616Z,14.34
2023-08-09T03:04:21.938Z,14.08
2023-08-09T03:05:23.787Z,14.42
2023-08-09T03:06:25.407Z,14.22
2023-08-09T03:07:27.050Z,14.04
2023-08-09T03:08:28.658Z,14.12
2023-08-09T03:09:30.424Z,14.39
2023-08-09T03:10:32.227Z,14.39
2023-08-09T03:11:33.871Z,14.53
2023-08-09T03:12:36.081Z,14.72
2023-08-09T03:13:37.697Z,14.33
2023-08-09T03:14:39.725Z,14.29
2023-08-09T03:15:41.297Z,14.33
2023-08-09T03:16:43.223Z,14.26
2023-08-09T03:17:46.226Z,14.21
2023-08-09T03:18:47.879Z,14.14
2023-08-09T03:19:50.618Z,14.12
2023-08-09T03:20:53.344Z,14.31
2023-08-09T03:21:54.945Z,14.45
2023-08-09T03:22:59.691Z,14.47
2023-08-09T03:24:01.627Z,14.16
2023-08-09T03:25:03.293Z,14.35
2023-08-09T03:26:05.574Z,14.29
2023-08-09T03:27:07.517Z,14.28
2023-08-09T03:28:10.294Z,14.26
2023-08-09T03:29:11.880Z,14.50
2023-08-09T03:30:14.701Z,14.57
2023-08-09T03:31:16.995Z,14.54
2023-08-09T03:32:18.674Z,14.54
2023-08-09T03:33:20.316Z,14.65
2023-08-09T03:34:21.998Z,14.42
2023-08-09T03:35:23.605Z,14.41
2023-08-09T03:36:26.170Z,14.63
2023-08-09T03:37:27.897Z,14.56
2023-08-09T03:38:29.462Z,14.76
2023-08-09T03:39:32.713Z,14.86
2023-08-09T03:40:34.389Z,14.89
2023-08-09T03:41:36.235Z,14.90
2023-08-09T03:42:37.951Z,14.92
2023-08-09T03:43:39.616Z,14.98
2023-08-09T03:44:41.379Z,14.90
2023-08-09T03:45:43.630Z,14.92
2023-08-09T03:46:45.458Z,14.85
2023-08-09T03:47:47.105Z,14.85
2023-08-09T03:48:48.747Z,14.78
2023-08-09T03:49:50.697Z,14.74
2023-08-09T03:50:52.318Z,14.71
2023-08-09T03:51:53.886Z,14.80
2023-08-09T03:52:55.457Z,14.95
2023-08-09T03:53:57.790Z,14.76
2023-08-09T03:54:59.416Z,14.87
2023-08-09T03:56:02.128Z,14.91
2023-08-09T03:57:07.808Z,14.87
2023-08-09T03:58:09.503Z,14.75
2023-08-09T03:59:11.158Z,14.78
2023-08-09T04:00:18.696Z,14.60
2023-08-09T04:01:22.773Z,14.54
2023-08-09T04:02:24.428Z,14.62
2023-08-09T04:03:26.078Z,14.81
2023-08-09T04:04:27.815Z,14.80
2023-08-09T04:05:29.828Z,14.83
2023-08-09T04:06:31.541Z,14.36
2023-08-09T04:07:33.194Z,14.30
2023-08-09T04:08:35.470Z,14.49
2023-08-09T04:09:37.445Z,14.65
2023-08-09T04:10:39.314Z,14.57
2023-08-09T04:11:40.961Z,14.58
2023-08-09T04:12:43.034Z,14.52
2023-08-09T04:13:44.672Z,14.70
2023-08-09T04:14:46.310Z,14.69
2023-08-09T04:15:47.975Z,14.73
2023-08-09T04:16:49.571Z,14.70
2023-08-09T04:17:51.985Z,14.62
2023-08-09T04:18:53.871Z,14.58
2023-08-09T04:19:55.507Z,14.68
2023-08-09T04:20:57.065Z,14.80
2023-08-09T04:21:58.698Z,14.87
2023-08-09T04:23:01.452Z,14.60
2023-08-09T04:24:03.237Z,14.61
2023-08-09T04:25:05.999Z,14.77
2023-08-09T04:26:07.736Z,14.80
2023-08-09T04:27:09.599Z,14.54
2023-08-09T04:28:13.621Z,14.77
2023-08-09T04:29:16.258Z,14.84
2023-08-09T04:30:18.300Z,14.89
2023-08-09T04:31:19.961Z,14.93
2023-08-09T04:32:21.646Z,14.76
2023-08-09T04:33:24.057Z,14.73
2023-08-09T04:34:25.937Z,14.98
2023-08-09T04:35:27.561Z,14.98
2023-08-09T04:36:29.673Z,14.70
2023-08-09T04:37:31.235Z,14.82
2023-08-09T04:38:32.827Z,14.61
2023-08-09T04:39:34.480Z,14.70
2023-08-09T04:40:37.556Z,14.55
2023-08-09T04:41:39.205Z,14.61
2023-08-09T04:42:42.337Z,14.65
2023-08-09T04:43:45.014Z,14.59
2023-08-09T04:44:46.764Z,14.48
2023-08-09T04:45:48.912Z,14.40
2023-08-09T04:46:50.606Z,14.55
2023-08-09T04:47:53.600Z,14.52
2023-08-09T04:48:55.243Z,14.57
2023-08-09T04:49:56.830Z,14.38
2023-08-09T04:50:58.560Z,14.24
2023-08-09T04:52:00.234Z,14.46
2023-08-09T04:53:01.832Z,14.43
2023-08-09T04:54:03.598Z,14.71
2023-08-09T04:55:05.815Z,14.57
2023-08-09T04:56:07.635Z,14.63
2023-08-09T04:57:09.316Z,14.62
2023-08-09T04:58:10.985Z,14.53
2023-08-09T04:59:12.646Z,14.44
2023-08-09T05:00:15.209Z,14.71
2023-08-09T05:01:16.907Z,14.55
2023-08-09T05:02:18.597Z,14.60
2023-08-09T05:03:20.183Z,14.76
2023-08-09T05:04:21.869Z,14.72
2023-08-09T05:05:23.491Z,14.69
2023-08-09T05:06:25.188Z,14.74
2023-08-09T05:07:26.988Z,14.65
2023-08-09T05:08:28.629Z,14.47
2023-08-09T05:09:30.366Z,14.39
2023-08-09T05:10:32.081Z,14.42
2023-08-09T05:11:33.726Z,14.62
2023-08-09T05:12:35.455Z,14.43
2023-08-09T05:13:38.067Z,14.51
2023-08-09T05:14:39.728Z,14.63
2023-08-09T05:15:41.385Z,14.61
2023-08-09T05:16:43.090Z,14.42
2023-08-09T05:17:44.781Z,14.45
2023-08-09T05:18:46.404Z,14.49
2023-08-09T05:19:47.998Z,14.50
2023-08-09T05:20:49.582Z,14.48
2023-08-09T05:21:51.410Z,14.63
2023-08-09T05:22:53.084Z,14.63
2023-08-09T05:23:54.817Z,14.55
2023-08-09T05:24:56.415Z,14.53
2023-08-09T05:25:57.984Z,14.58
2023-08-09T05:26:59.862Z,14.45
2023-08-09T05:28:01.843Z,14.55
2023-08-09T05:29:03.756Z,14.61
2023-08-09T05:30:05.982Z,14.78
2023-08-09T05:31:07.720Z,14.64
2023-08-09T05:32:09.366Z,14.65
2023-08-09T05:33:11.069Z,14.48
2023-08-09T05:34:12.832Z,14.43
2023-08-09T05:35:14.904Z,14.55
2023-08-09T05:36:16.503Z,14.52
2023-08-09T05:37:18.121Z,14.58
2023-08-09T05:38:19.742Z,14.58
2023-08-09T05:39:21.552Z,14.60
2023-08-09T05:40:23.190Z,14.47
2023-08-09T05:41:24.781Z,14.52
2023-08-09T05:42:26.403Z,14.53
2023-08-09T05:43:28.063Z,14.64
2023-08-09T05:44:29.675Z,14.52
2023-08-09T05:45:31.290Z,14.58
2023-08-09T05:46:33.017Z,14.57
2023-08-09T05:47:34.752Z,14.49
2023-08-09T05:48:36.547Z,14.70
2023-08-09T05:49:38.317Z,14.59
2023-08-09T05:50:40.624Z,14.73
2023-08-09T05:51:42.353Z,14.73
2023-08-09T05:52:44.086Z,14.83
2023-08-09T05:53:45.740Z,14.76
2023-08-09T05:54:47.977Z,14.74
2023-08-09T05:55:49.663Z,14.84
2023-08-09T05:56:51.309Z,14.95
2023-08-09T05:57:52.968Z,14.78
2023-08-09T05:58:54.587Z,14.74
2023-08-09T05:59:56.212Z,14.77
2023-08-09T06:00:58.379Z,14.78
2023-08-09T06:02:00.229Z,14.76
2023-08-09T06:03:02.934Z,14.67
2023-08-09T06:04:05.043Z,14.57
2023-08-09T06:05:07.089Z,14.65
2023-08-09T06:06:08.926Z,14.72
2023-08-09T06:07:10.995Z,14.87
2023-08-09T06:08:12.742Z,14.85
2023-08-09T06:09:14.438Z,14.89
2023-08-09T06:10:16.139Z,14.73
2023-08-09T06:11:17.792Z,14.90
2023-08-09T06:12:19.404Z,14.80
2023-08-09T06:13:21.216Z,14.94
2023-08-09T06:14:23.984Z,14.92
2023-08-09T06:15:25.682Z,14.94
2023-08-09T06:16:27.604Z,14.91
2023-08-09T06:17:29.233Z,15.05
2023-08-09T06:18:30.922Z,15.09
2023-08-09T06:19:34.057Z,15.29
2023-08-09T06:20:35.669Z,15.38
2023-08-09T06:21:37.243Z,15.43
2023-08-09T06:22:38.846Z,15.20
2023-08-09T06:23:40.470Z,15.23
2023-08-09T06:24:42.064Z,15.09
2023-08-09T06:25:43.705Z,15.18
2023-08-09T06:26:45.336Z,15.00
2023-08-09T06:27:46.926Z,15.09
2023-08-09T06:28:49.591Z,15.10
2023-08-09T06:29:51.554Z,15.12
2023-08-09T06:30:53.278Z,15.28
2023-08-09T06:31:54.959Z,15.43
2023-08-09T06:32:56.650Z,15.52
2023-08-09T06:33:58.634Z,15.46
2023-08-09T06:35:00.616Z,15.29
2023-08-09T06:36:02.289Z,15.26
2023-08-09T06:37:04.232Z,15.27
2023-08-09T06:38:15.394Z,15.37
2023-08-09T06:39:17.858Z,15.39
2023-08-09T06:40:19.616Z,15.40
2023-08-09T06:41:21.221Z,15.29
2023-08-09T06:42:22.847Z,15.39
2023-08-09T06:43:26.822Z,15.75
2023-08-09T06:44:28.426Z,15.46
2023-08-09T06:45:30.044Z,15.40
2023-08-09T06:46:31.747Z,15.35
2023-08-09T06:47:33.400Z,15.24
2023-08-09T06:48:36.148Z,15.20
2023-08-09T06:49:37.806Z,15.31
2023-08-09T06:50:39.456Z,15.41
2023-08-09T06:51:42.650Z,15.47
2023-08-09T06:52:44.258Z,15.37
2023-08-09T06:53:45.908Z,15.37
2023-08-09T06:54:51.321Z,15.23
2023-08-09T06:55:54.951Z,15.36
2023-08-09T06:56:56.574Z,15.38
2023-08-09T06:57:58.217Z,15.26
2023-08-09T06:58:59.825Z,15.20
2023-08-09T07:00:02.711Z,15.24
2023-08-09T07:01:04.729Z,15.12
2023-08-09T07:02:06.556Z,15.10
2023-08-09T07:03:08.505Z,15.27
2023-08-09T07:04:10.318Z,15.27
2023-08-09T07:05:16.559Z,15.23
2023-08-09T07:06:18.232Z,15.41
2023-08-09T07:07:20.436Z,15.36
2023-08-09T07:08:22.577Z,15.47
2023-08-09T07:09:24.269Z,15.33
2023-08-09T07:10:26.449Z,15.19
2023-08-09T07:11:28.165Z,15.19
2023-08-09T07:12:30.219Z,15.20
2023-08-09T07:13:31.980Z,15.11
2023-08-09T07:14:33.678Z,15.10
2023-08-09T07:15:35.301Z,15.10
2023-08-09T07:16:37.062Z,15.06
2023-08-09T07:17:39.291Z,14.95
2023-08-09T07:18:40.894Z,15.05
2023-08-09T07:19:42.487Z,15.01
2023-08-09T07:20:44.122Z,15.01
2023-08-09T07:21:45.786Z,15.07
2023-08-09T07:22:47.528Z,15.07
2023-08-09T07:23:57.600Z,15.04
2023-08-09T07:25:00.033Z,14.96
2023-08-09T07:26:01.701Z,14.95
2023-08-09T07:27:03.425Z,15.00
2023-08-09T07:28:05.387Z,15.09
2023-08-09T07:29:07.021Z,15.19
2023-08-09T07:30:10.344Z,15.15
2023-08-09T07:31:22.129Z,15.15
2023-08-09T07:32:23.965Z,15.03
2023-08-09T07:33:25.622Z,15.00
2023-08-09T07:34:27.256Z,15.04
2023-08-09T07:35:28.986Z,14.98
2023-08-09T07:36:30.777Z,15.05
2023-08-09T07:37:33.763Z,15.13
2023-08-09T07:38:37.675Z,14.98
2023-08-09T07:39:39.369Z,15.01
2023-08-09T07:40:41.001Z,15.04
2023-08-09T07:41:42.638Z,15.04
2023-08-09T07:42:44.569Z,15.03
2023-08-09T07:43:46.590Z,15.02
2023-08-09T07:44:48.236Z,15.03
2023-08-09T07:45:50.450Z,15.04
2023-08-09T07:46:52.167Z,15.01
2023-08-09T07:47:53.916Z,15.01
2023-08-09T07:48:55.780Z,15.06
2023-08-09T07:49:57.446Z,15.25
2023-08-09T07:50:59.428Z,15.34
2023-08-09T07:52:01.284Z,15.22
2023-08-09T07:53:03.172Z,15.17
2023-08-09T07:54:04.850Z,15.32
2023-08-09T07:55:06.812Z,15.35
2023-08-09T07:56:08.654Z,15.23
2023-08-09T07:57:10.584Z,15.08
2023-08-09T07:58:12.238Z,14.92
2023-08-09T07:59:13.816Z,14.86
2023-08-09T08:00:18.404Z,14.84
2023-08-09T08:01:20.361Z,14.84
2023-08-09T08:02:22.036Z,14.81
2023-08-09T08:03:23.832Z,14.80
2023-08-09T08:04:25.426Z,14.85
2023-08-09T08:05:27.072Z,14.78
2023-08-09T08:06:28.967Z,14.91
2023-08-09T08:07:30.874Z,14.85
2023-08-09T08:08:32.853Z,14.90
2023-08-09T08:09:34.529Z,14.97
2023-08-09T08:10:36.107Z,14.95
2023-08-09T08:11:37.730Z,14.94
2023-08-09T08:12:39.823Z,14.85
2023-08-09T08:13:41.463Z,14.83
2023-08-09T08:14:43.660Z,14.77
2023-08-09T08:15:45.372Z,14.82
2023-08-09T08:16:47.069Z,14.76
2023-08-09T08:17:52.585Z,14.77
2023-08-09T08:18:54.245Z,14.76
2023-08-09T08:19:57.447Z,14.77
2023-08-09T08:21:03.144Z,14.86
2023-08-09T08:22:06.772Z,14.86
2023-08-09T08:23:08.398Z,14.79
2023-08-09T08:24:10.090Z,14.87
2023-08-09T08:25:15.461Z,14.74
2023-08-09T08:26:17.120Z,14.77
2023-08-09T08:27:18.855Z,14.85
2023-08-09T08:28:20.464Z,14.90
2023-08-09T08:29:23.578Z,15.06
2023-08-09T08:30:25.202Z,15.08
2023-08-09T08:31:27.464Z,15.20
2023-08-09T08:32:29.101Z,15.19
2023-08-09T08:33:30.769Z,15.20
2023-08-09T08:34:33.322Z,15.22
2023-08-09T08:35:44.565Z,15.27
2023-08-09T08:36:46.249Z,15.28
2023-08-09T08:37:50.125Z,15.24
2023-08-09T08:38:51.936Z,15.30
2023-08-09T08:39:53.568Z,15.38
2023-08-09T08:40:55.635Z,15.31
2023-08-09T08:42:00.456Z,15.39
2023-08-09T08:43:02.603Z,15.43
2023-08-09T08:44:07.228Z,15.39
2023-08-09T08:45:12.539Z,15.29
2023-08-09T08:46:20.194Z,15.45
2023-08-09T08:47:21.947Z,15.59
2023-08-09T08:48:23.835Z,15.44
2023-08-09T08:49:26.486Z,15.49
2023-08-09T08:50:31.185Z,15.59
2023-08-09T08:51:34.593Z,15.67
2023-08-09T08:52:45.523Z,15.66
2023-08-09T08:53:47.304Z,15.73
2023-08-09T08:54:48.924Z,15.60
2023-08-09T08:55:50.619Z,15.52
2023-08-09T08:56:52.776Z,15.44
2023-08-09T08:58:18.927Z,15.61
2023-08-09T08:59:21.365Z,15.42
2023-08-09T09:00:28.249Z,15.32
2023-08-09T09:01:31.632Z,15.28
2023-08-09T09:02:33.990Z,15.30
2023-08-09T09:03:35.628Z,15.26
2023-08-09T09:04:39.780Z,15.45
2023-08-09T09:05:41.460Z,15.32
2023-08-09T09:06:43.070Z,15.45
2023-08-09T09:07:50.928Z,15.52
2023-08-09T09:09:00.725Z,15.69
2023-08-09T09:10:07.529Z,15.92
2023-08-09T09:11:15.923Z,16.04
2023-08-09T09:12:20.868Z,16.33
2023-08-09T09:13:27.974Z,16.33
2023-08-09T09:14:29.731Z,16.05
2023-08-09T09:15:31.480Z,16.00
2023-08-09T09:16:36.604Z,15.98
2023-08-09T09:17:39.596Z,15.99
2023-08-09T09:18:46.582Z,15.96
2023-08-09T09:19:48.976Z,15.96
2023-08-09T09:20:50.819Z,15.88
2023-08-09T09:21:52.632Z,15.98
2023-08-09T09:22:55.116Z,16.08
2023-08-09T09:23:56.934Z,16.05
2023-08-09T09:25:00.013Z,16.11
2023-08-09T09:26:12.485Z,15.76
2023-08-09T09:27:14.773Z,15.87
2023-08-09T09:28:19.748Z,15.95
2023-08-09T09:29:22.278Z,15.80
2023-08-09T09:30:25.714Z,15.79
2023-08-09T09:31:40.474Z,15.77
2023-08-09T09:32:58.528Z,15.72
2023-08-09T09:34:01.794Z,15.74
2023-08-09T09:35:05.095Z,15.60
2023-08-09T09:36:12.030Z,15.69
2023-08-09T09:37:19.210Z,15.62
2023-08-09T09:38:22.112Z,15.62
2023-08-09T09:39:25.407Z,15.77
2023-08-09T09:40:31.881Z,15.75
2023-08-09T09:41:34.630Z,15.80
2023-08-09T09:42:37.257Z,15.73
2023-08-09T09:43:40.529Z,15.84
2023-08-09T09:44:43.022Z,15.73
2023-08-09T09:45:46.274Z,15.70
2023-08-09T09:46:54.320Z,15.68
2023-08-09T09:48:00.280Z,15.66
2023-08-09T09:49:04.655Z,15.70
2023-08-09T09:50:09.362Z,15.76
2023-08-09T09:51:11.868Z,16.14
2023-08-09T09:52:16.224Z,16.21
2023-08-09T09:53:20.293Z,16.25
2023-08-09T09:54:24.343Z,16.40
2023-08-09T09:55:29.787Z,16.60
2023-08-09T09:56:35.146Z,16.56
2023-08-09T09:57:39.042Z,16.64
2023-08-09T09:58:42.803Z,16.66
2023-08-09T09:59:45.961Z,16.62
2023-08-09T10:00:51.700Z,16.82
2023-08-09T10:01:55.215Z,16.79
2023-08-09T10:03:01.433Z,16.80
2023-08-09T10:04:11.356Z,17.21
2023-08-09T10:05:20.036Z,17.30
2023-08-09T10:06:23.658Z,17.42
2023-08-09T10:07:29.643Z,17.25
2023-08-09T10:08:32.986Z,17.45
2023-08-09T10:09:35.284Z,17.66
2023-08-09T10:10:37.424Z,17.88
2023-08-09T10:11:39.695Z,18.02
2023-08-09T10:12:46.423Z,18.17
2023-08-09T10:13:48.846Z,18.41
2023-08-09T10:14:50.703Z,18.32
2023-08-09T10:15:58.675Z,18.30
2023-08-09T10:17:09.926Z,18.05
2023-08-09T10:18:37.956Z,17.95
2023-08-09T10:19:40.753Z,17.77
2023-08-09T10:20:52.018Z,17.78
2023-08-09T10:21:55.794Z,17.59
2023-08-09T10:22:59.359Z,17.78
2023-08-09T10:24:09.391Z,17.77
2023-08-09T10:25:12.235Z,17.83
2023-08-09T10:26:17.777Z,17.89
2023-08-09T10:27:54.820Z,18.05
2023-08-09T10:29:05.331Z,18.21
2023-08-09T10:30:07.550Z,18.21
2023-08-09T10:31:09.352Z,18.87
2023-08-09T10:32:11.083Z,19.20
2023-08-09T10:33:19.556Z,19.22
2023-08-09T10:34:21.810Z,19.48
2023-08-09T10:35:55.529Z,19.31
2023-08-09T10:36:57.241Z,19.70
2023-08-09T10:37:58.904Z,19.64
2023-08-09T10:39:09.202Z,19.49
2023-08-09T10:40:17.297Z,19.54
2023-08-09T10:41:19.095Z,19.69
2023-08-09T10:42:20.685Z,19.61
2023-08-09T10:43:24.718Z,19.63
2023-08-09T10:44:42.130Z,19.61
2023-08-09T10:45:43.775Z,19.70
2023-08-09T10:46:45.339Z,19.55
2023-08-09T10:47:47.828Z,19.70
2023-08-09T10:48:54.312Z,19.93
2023-08-09T10:49:55.798Z,20.30
2023-08-09T10:51:09.422Z,20.41
2023-08-09T10:52:32.924Z,20.28
2023-08-09T10:54:02.744Z,20.37
2023-08-09T10:55:19.571Z,20.87
2023-08-09T10:56:36.350Z,20.68
2023-08-09T10:57:44.412Z,20.83
2023-08-09T10:58:46.015Z,20.83
2023-08-09T10:59:58.229Z,20.45
2023-08-09T11:01:00.073Z,20.26
2023-08-09T11:02:02.031Z,20.44
2023-08-09T11:03:05.390Z,20.69
2023-08-09T11:04:10.747Z,20.99
2023-08-09T11:05:13.499Z,20.82
2023-08-09T11:06:15.084Z,21.22
2023-08-09T11:07:21.030Z,21.31
2023-08-09T11:08:22.785Z,21.14
2023-08-09T11:09:24.651Z,20.96
2023-08-09T11:10:34.009Z,20.93
2023-08-09T11:11:36.501Z,21.12
2023-08-09T11:12:38.354Z,20.73
2023-08-09T11:13:48.108Z,20.61
2023-08-09T11:14:57.522Z,20.87
2023-08-09T11:16:08.301Z,20.57
2023-08-09T11:17:13.841Z,20.63
2023-08-09T11:18:19.928Z,20.50
2023-08-09T11:19:35.099Z,20.69
2023-08-09T11:20:38.009Z,20.67
2023-08-09T11:21:47.115Z,20.48
2023-08-09T11:22:59.009Z,20.69
2023-08-09T11:24:00.612Z,20.51
2023-08-09T11:25:02.232Z,20.32
2023-08-09T11:26:04.027Z,20.41
2023-08-09T11:27:05.781Z,20.49
2023-08-09T11:28:08.380Z,20.68
2023-08-09T11:29:11.512Z,20.68
2023-08-09T11:30:13.923Z,20.49
2023-08-09T11:31:15.704Z,20.34
2023-08-09T11:32:17.469Z,20.38
2023-08-09T11:33:19.182Z,20.69
2023-08-09T11:34:22.395Z,20.32
2023-08-09T11:35:36.158Z,20.30
2023-08-09T11:36:41.575Z,20.47
2023-08-09T11:37:43.189Z,20.40
2023-08-09T11:38:44.851Z,20.22
2023-08-09T11:39:46.475Z,20.24
2023-08-09T11:40:52.896Z,20.23
2023-08-09T11:41:57.546Z,20.48
2023-08-09T11:42:59.655Z,20.33
2023-08-09T11:44:05.344Z,20.51
2023-08-09T11:45:08.474Z,20.83
2023-08-09T11:46:11.478Z,20.80
2023-08-09T11:47:13.199Z,20.62
2023-08-09T11:48:24.032Z,20.61
2023-08-09T11:49:29.082Z,20.92
2023-08-09T11:50:30.805Z,21.17
2023-08-09T11:51:35.216Z,20.99
2023-08-09T11:52:36.833Z,21.11
2023-08-09T11:53:39.518Z,20.93
2023-08-09T11:54:41.750Z,21.03
2023-08-09T11:55:43.372Z,21.00
2023-08-09T11:56:45.261Z,21.12
2023-08-09T11:57:46.891Z,21.23
2023-08-09T11:58:50.432Z,21.37
2023-08-09T12:00:03.544Z,21.54
2023-08-09T12:01:22.236Z,21.35
2023-08-09T12:02:28.138Z,21.47
2023-08-09T12:03:29.920Z,21.83
2023-08-09T12:04:32.184Z,21.88
2023-08-09T12:05:33.798Z,22.14
2023-08-09T12:06:39.103Z,22.05
2023-08-09T12:07:41.299Z,22.06
2023-08-09T12:08:43.043Z,22.22
2023-08-09T12:09:45.504Z,22.24
2023-08-09T12:10:47.333Z,22.59
2023-08-09T12:11:49.640Z,22.72
2023-08-09T12:12:51.228Z,22.81
2023-08-09T12:13:52.826Z,22.75
2023-08-09T12:14:54.537Z,22.54
2023-08-09T12:15:57.346Z,22.08
2023-08-09T12:16:59.077Z,22.09
2023-08-09T12:18:00.775Z,22.00
2023-08-09T12:19:02.404Z,22.35
2023-08-09T12:20:07.967Z,22.40
2023-08-09T12:21:09.983Z,22.39
2023-08-09T12:22:11.697Z,22.52
2023-08-09T12:23:13.413Z,22.55
2023-08-09T12:24:15.968Z,21.91
2023-08-09T12:25:17.627Z,21.84
2023-08-09T12:26:19.212Z,21.91
2023-08-09T12:27:20.925Z,21.90
2023-08-09T12:28:22.568Z,21.75
2023-08-09T12:29:24.149Z,21.57
2023-08-09T12:30:25.952Z,21.60
2023-08-09T12:31:27.820Z,21.18
2023-08-09T12:32:31.051Z,21.02
2023-08-09T12:33:32.719Z,20.90
2023-08-09T12:34:34.447Z,20.84
2023-08-09T12:35:36.531Z,20.83
2023-08-09T12:36:39.598Z,20.97
2023-08-09T12:37:41.336Z,21.00
2023-08-09T12:38:42.957Z,20.92
2023-08-09T12:39:44.863Z,21.01
2023-08-09T12:40:46.839Z,20.62
2023-08-09T12:41:48.430Z,20.64
2023-08-09T12:42:52.206Z,20.63
2023-08-09T12:43:54.937Z,20.68
2023-08-09T12:44:57.779Z,20.88
2023-08-09T12:46:01.138Z,21.01
2023-08-09T12:47:02.881Z,20.90
2023-08-09T12:48:05.177Z,21.16
2023-08-09T12:49:07.195Z,21.26
2023-08-09T12:50:09.288Z,21.41
2023-08-09T12:51:10.923Z,21.80
2023-08-09T12:52:12.569Z,21.84
2023-08-09T12:53:14.207Z,21.75
2023-08-09T12:54:15.910Z,21.85
2023-08-09T12:55:17.646Z,21.86
2023-08-09T12:56:25.179Z,22.06
2023-08-09T12:57:27.815Z,22.15
2023-08-09T12:58:30.150Z,22.20
2023-08-09T12:59:31.847Z,21.95
2023-08-09T13:00:33.514Z,21.77
2023-08-09T13:01:36.729Z,21.49
2023-08-09T13:02:38.415Z,21.24
2023-08-09T13:03:40.072Z,21.20
2023-08-09T13:04:41.697Z,21.16
2023-08-09T13:05:45.892Z,21.06
2023-08-09T13:06:47.530Z,21.06
2023-08-09T13:07:49.218Z,20.84
2023-08-09T13:08:50.807Z,20.64
2023-08-09T13:09:53.825Z,20.59
2023-08-09T13:10:56.536Z,20.48
2023-08-09T13:12:09.796Z,20.64
2023-08-09T13:13:11.605Z,20.52
2023-08-09T13:14:13.418Z,20.54
2023-08-09T13:15:15.322Z,20.73
2023-08-09T13:16:17.203Z,20.73
2023-08-09T13:17:18.922Z,20.57
2023-08-09T13:18:20.532Z,20.61
2023-08-09T13:19:22.143Z,20.59
2023-08-09T13:20:26.074Z,20.58
2023-08-09T13:21:27.760Z,20.54
2023-08-09T13:22:29.436Z,20.58
2023-08-09T13:23:31.758Z,20.61
2023-08-09T13:24:33.243Z,20.60
2023-08-09T13:25:35.725Z,20.68
2023-08-09T13:26:37.412Z,20.70
2023-08-09T13:27:40.489Z,20.56
2023-08-09T13:28:42.530Z,20.87
2023-08-09T13:29:44.520Z,20.81
2023-08-09T13:30:46.160Z,20.79
2023-08-09T13:31:48.024Z,20.72
2023-08-09T13:32:49.806Z,20.40
2023-08-09T13:33:51.384Z,20.31